LWK weather

Lerwick / Tingwall Airport
Lerwick, Scotland, United Kingdom

Public forecast

Using degrees Celsius for public forecast. Weather courtesy of forecast.io.

Closest aviation weather report (METAR) to Lerwick / Tingwall Airport

Closest report is Scatsta Airport, 14.5 nm (26.9 km) N. Retrieved 2019/12/06 05:20 UTC (6 minutes ago):

EGPM 060520Z AUTO 28006KT 9999 FEW009/// BKN034/// 06/02 Q0987

Closest aviation forecast (TAF) to Lerwick / Tingwall Airport

Forecast is more than 12 hours old.

Closest forecast is Scatsta Airport, 14.5 nm (26.9 km) N. Retrieved 2013/04/29 03:39 UTC (7 years ago):

TAF TAF EGPM 290337Z 2903/2915 22005KT 9999 SCT030 PROB30 TEMPO 2903/2906 7000 SHRAGS BECMG 2906/2909 32015KT PROB40 TEMPO 2906/2915 6000 SHRA SHGS BKN012CB